createdAt,value
2018-11-29T00:00:40.281Z,66.47
2018-11-29T00:03:10.021Z,65.87
2018-11-29T00:05:38.806Z,59.90
2018-11-29T00:08:07.299Z,60.92
2018-11-29T00:10:35.783Z,56.30
2018-11-29T00:13:04.275Z,52.00
2018-11-29T00:15:32.742Z,66.97
2018-11-29T00:18:01.191Z,58.02
2018-11-29T00:20:29.674Z,55.52
2018-11-29T00:22:58.148Z,59.58
2018-11-29T00:25:26.702Z,60.45
2018-11-29T00:27:55.171Z,52.70
2018-11-29T00:30:24.569Z,49.70
2018-11-29T00:32:53.987Z,53.50
2018-11-29T00:35:22.479Z,63.95
2018-11-29T00:37:51.034Z,61.53
2018-11-29T00:40:23.306Z,63.65
2018-11-29T00:42:51.921Z,60.03
2018-11-29T00:45:21.272Z,56.23
2018-11-29T00:47:49.935Z,54.13
2018-11-29T00:50:19.170Z,52.73
2018-11-29T00:52:48.560Z,49.20
2018-11-29T00:55:19.907Z,59.90
2018-11-29T00:57:48.373Z,53.10
2018-11-29T01:00:24.899Z,59.13
2018-11-29T01:02:53.438Z,53.05
2018-11-29T01:05:21.925Z,63.92
2018-11-29T01:07:50.413Z,52.58
2018-11-29T01:10:19.238Z,56.53
2018-11-29T01:12:48.374Z,51.20
2018-11-29T01:15:17.716Z,50.20
2018-11-29T01:17:47.138Z,54.03
2018-11-29T01:20:16.742Z,52.62
2018-11-29T01:22:45.226Z,47.60
2018-11-29T01:25:14.518Z,53.33
2018-11-29T01:27:43.874Z,55.63
2018-11-29T01:30:14.236Z,55.75
2018-11-29T01:32:42.703Z,54.63
2018-11-29T01:35:12.942Z,47.53
2018-11-29T01:37:41.389Z,61.73
2018-11-29T01:40:16.123Z,54.45
2018-11-29T01:42:51.526Z,59.85
2018-11-29T01:45:20.038Z,57.75
2018-11-29T01:47:48.538Z,56.00
2018-11-29T01:50:17.066Z,55.90
2018-11-29T01:52:45.534Z,57.85
2018-11-29T01:55:14.039Z,58.05
2018-11-29T01:57:42.533Z,53.30
2018-11-29T02:00:15.898Z,54.00
2018-11-29T02:02:45.341Z,57.88
2018-11-29T02:05:13.843Z,60.92
2018-11-29T02:07:42.326Z,58.92
2018-11-29T02:10:17.879Z,50.25
2018-11-29T02:12:46.419Z,63.38
2018-11-29T02:15:14.925Z,61.83
2018-11-29T02:17:43.433Z,56.25
2018-11-29T02:20:15.035Z,59.77
2018-11-29T02:22:43.544Z,57.88
2018-11-29T02:25:12.066Z,62.03
2018-11-29T02:27:40.585Z,60.85
2018-11-29T02:30:18.279Z,67.97
2018-11-29T02:32:47.079Z,57.05
2018-11-29T02:35:15.577Z,55.92
2018-11-29T02:37:44.067Z,52.15
2018-11-29T02:40:13.495Z,57.58
2018-11-29T02:42:42.298Z,61.05
2018-11-29T02:45:12.091Z,61.83
2018-11-29T02:47:40.596Z,53.90
2018-11-29T02:50:09.998Z,65.85
2018-11-29T02:52:38.483Z,58.45
2018-11-29T02:55:08.386Z,59.20
2018-11-29T02:57:36.904Z,54.23
2018-11-29T03:00:09.266Z,46.70
2018-11-29T03:02:37.745Z,44.58
2018-11-29T03:05:06.265Z,60.38
2018-11-29T03:07:34.731Z,61.85
2018-11-29T03:10:03.797Z,59.05
2018-11-29T03:12:32.274Z,54.15
2018-11-29T03:15:00.711Z,50.90
2018-11-29T03:17:29.266Z,56.40
2018-11-29T03:19:57.702Z,53.90
2018-11-29T03:22:26.191Z,54.63
2018-11-29T03:24:54.629Z,53.70
2018-11-29T03:27:23.088Z,55.78
2018-11-29T03:29:51.550Z,46.88
2018-11-29T03:32:20.043Z,50.55
2018-11-29T03:34:48.498Z,50.50
2018-11-29T03:37:16.962Z,44.95
2018-11-29T03:39:45.420Z,53.00
2018-11-29T03:42:13.968Z,48.20
2018-11-29T03:44:42.419Z,54.27
2018-11-29T03:47:10.977Z,43.28
2018-11-29T03:49:39.438Z,45.55
2018-11-29T03:52:07.910Z,46.40
2018-11-29T03:54:36.371Z,50.40
2018-11-29T03:57:05.126Z,54.58
2018-11-29T03:59:33.594Z,48.05
2018-11-29T04:02:02.053Z,53.92
2018-11-29T04:04:30.509Z,55.35
2018-11-29T04:06:58.973Z,51.45
2018-11-29T04:09:27.438Z,50.83
2018-11-29T04:11:55.885Z,46.58
2018-11-29T04:14:24.347Z,52.90
2018-11-29T04:16:52.838Z,44.95
2018-11-29T04:19:21.302Z,46.80
2018-11-29T04:21:49.774Z,50.58
2018-11-29T04:24:18.297Z,52.58
2018-11-29T04:26:46.738Z,45.90
2018-11-29T04:29:15.190Z,52.88
2018-11-29T04:31:43.650Z,51.77
2018-11-29T04:34:12.113Z,50.45
2018-11-29T04:36:40.559Z,53.15
2018-11-29T04:39:09.074Z,48.48
2018-11-29T04:41:37.590Z,45.80
2018-11-29T04:44:06.143Z,51.18
2018-11-29T04:46:49.529Z,45.12
2018-11-29T04:49:18.028Z,49.90
2018-11-29T04:51:46.614Z,51.02
2018-11-29T04:54:15.102Z,48.02
2018-11-29T04:56:43.552Z,54.67
2018-11-29T04:59:12.070Z,50.52
2018-11-29T05:01:40.532Z,48.00
2018-11-29T05:04:09.018Z,46.90
2018-11-29T05:06:37.439Z,45.63
2018-11-29T05:09:08.321Z,54.53
2018-11-29T05:11:37.115Z,48.10
2018-11-29T05:14:05.857Z,59.55
2018-11-29T05:16:34.270Z,51.15
2018-11-29T05:19:02.734Z,61.73
2018-11-29T05:21:31.158Z,43.85
2018-11-29T05:23:59.615Z,46.13
2018-11-29T05:26:28.085Z,51.65
2018-11-29T05:28:56.542Z,48.58
2018-11-29T05:31:25.002Z,48.52
2018-11-29T05:33:53.571Z,61.65
2018-11-29T05:36:22.007Z,50.00
2018-11-29T05:38:50.435Z,54.67
2018-11-29T05:41:18.882Z,45.28
2018-11-29T05:43:47.305Z,48.83
2018-11-29T05:46:15.760Z,50.80
2018-11-29T05:48:44.207Z,44.45
2018-11-29T05:51:12.673Z,53.00
2018-11-29T05:53:41.098Z,54.10
2018-11-29T05:56:09.559Z,54.40
2018-11-29T05:58:37.998Z,51.10
2018-11-29T06:01:39.162Z,43.78
2018-11-29T06:04:07.598Z,50.75
2018-11-29T06:06:36.095Z,54.73
2018-11-29T06:09:09.688Z,50.52
2018-11-29T06:11:38.975Z,49.90
2018-11-29T06:14:08.194Z,51.92
2018-11-29T06:16:37.577Z,43.13
2018-11-29T06:19:07.511Z,50.70
2018-11-29T06:21:36.028Z,49.60
2018-11-29T06:24:04.847Z,47.67
2018-11-29T06:26:33.326Z,46.70
2018-11-29T06:29:01.749Z,45.55
2018-11-29T06:31:30.193Z,59.00
2018-11-29T06:33:58.618Z,63.42
2018-11-29T06:36:27.070Z,61.05
2018-11-29T06:38:55.705Z,59.35
2018-11-29T06:41:24.250Z,52.53
2018-11-29T06:43:52.677Z,60.05
2018-11-29T06:46:21.141Z,54.77
2018-11-29T06:48:49.562Z,51.95
2018-11-29T06:51:18.006Z,53.48
2018-11-29T06:53:51.569Z,53.50
2018-11-29T06:56:20.353Z,53.75
2018-11-29T06:58:48.789Z,59.88
2018-11-29T07:01:17.294Z,46.33
2018-11-29T07:03:45.718Z,54.35
2018-11-29T07:06:14.166Z,50.23
2018-11-29T07:08:42.581Z,50.92
2018-11-29T07:11:11.023Z,59.03
2018-11-29T07:13:39.458Z,41.18
2018-11-29T07:16:07.971Z,50.23
2018-11-29T07:18:36.432Z,52.53
2018-11-29T07:21:16.238Z,57.43
2018-11-29T07:23:44.654Z,46.18
2018-11-29T07:26:13.138Z,48.98
2018-11-29T07:28:41.570Z,65.50
2018-11-29T07:31:10.014Z,46.65
2018-11-29T07:33:38.466Z,47.23
2018-11-29T07:36:06.934Z,52.27
2018-11-29T07:38:35.409Z,50.03
2018-11-29T07:41:03.847Z,55.95
2018-11-29T07:43:32.302Z,49.58
2018-11-29T07:46:00.755Z,37.85
2018-11-29T07:48:29.257Z,45.95
2018-11-29T07:50:57.703Z,44.77
2018-11-29T07:53:26.162Z,45.67
2018-11-29T07:55:54.667Z,48.65
2018-11-29T07:58:23.114Z,46.23
2018-11-29T08:00:51.650Z,48.28
2018-11-29T08:03:20.148Z,48.90
2018-11-29T08:05:48.581Z,44.55
2018-11-29T08:08:17.031Z,44.53
2018-11-29T08:10:45.489Z,43.95
2018-11-29T08:13:13.959Z,56.15
2018-11-29T08:15:42.417Z,44.70
2018-11-29T08:18:10.870Z,46.50
2018-11-29T08:20:39.333Z,43.98
2018-11-29T08:23:07.791Z,43.58
2018-11-29T08:25:36.234Z,52.62
2018-11-29T08:28:04.802Z,41.35
2018-11-29T08:30:33.267Z,48.73
2018-11-29T08:33:01.719Z,44.25
2018-11-29T08:35:30.163Z,42.90
2018-11-29T08:37:58.619Z,42.65
2018-11-29T08:40:27.112Z,40.77
2018-11-29T08:42:55.574Z,49.73
2018-11-29T08:45:24.123Z,43.17
2018-11-29T08:47:52.550Z,39.85
2018-11-29T08:50:20.994Z,37.17
2018-11-29T08:52:49.422Z,46.18
2018-11-29T08:55:18.774Z,39.85
2018-11-29T08:57:48.050Z,34.40
2018-11-29T09:00:17.620Z,41.08
2018-11-29T09:02:46.087Z,40.98
2018-11-29T09:05:14.666Z,38.42
2018-11-29T09:07:44.015Z,33.83
2018-11-29T09:10:13.533Z,44.25
2018-11-29T09:12:42.031Z,39.55
2018-11-29T09:15:12.666Z,33.58
2018-11-29T09:17:41.292Z,34.58
2018-11-29T09:20:13.843Z,36.50
2018-11-29T09:22:42.381Z,35.83
2018-11-29T09:25:12.203Z,33.80
2018-11-29T09:27:40.659Z,32.15
2018-11-29T09:30:12.110Z,35.33
2018-11-29T09:32:40.861Z,32.95
2018-11-29T09:35:09.467Z,31.55
2018-11-29T09:37:37.942Z,34.78
2018-11-29T09:40:08.873Z,27.87
2018-11-29T09:42:37.378Z,31.20
2018-11-29T09:45:09.025Z,36.73
2018-11-29T09:47:37.999Z,27.75
2018-11-29T09:50:09.128Z,28.35
2018-11-29T09:52:38.202Z,28.90
2018-11-29T09:55:07.146Z,25.90
2018-11-29T09:57:35.562Z,26.23
2018-11-29T10:00:04.921Z,25.57
2018-11-29T10:02:33.354Z,25.73
2018-11-29T10:05:01.779Z,25.53
2018-11-29T10:07:30.299Z,29.80
2018-11-29T10:09:58.709Z,29.83
2018-11-29T10:12:27.154Z,22.13
2018-11-29T10:14:55.576Z,21.80
2018-11-29T10:17:24.014Z,23.43
2018-11-29T10:19:52.551Z,25.20
2018-11-29T10:22:21.008Z,24.23
2018-11-29T10:24:49.430Z,19.70
2018-11-29T10:27:17.863Z,26.20
2018-11-29T10:29:46.290Z,25.37
2018-11-29T10:32:14.734Z,24.43
2018-11-29T10:34:43.166Z,18.93
2018-11-29T10:37:11.594Z,21.63
2018-11-29T10:39:40.406Z,23.57
2018-11-29T10:42:08.539Z,22.43
2018-11-29T10:44:36.972Z,21.90
2018-11-29T10:47:05.513Z,20.03
2018-11-29T10:49:33.998Z,22.30
2018-11-29T10:52:02.434Z,22.40
2018-11-29T10:54:30.865Z,21.00
2018-11-29T10:57:00.242Z,23.10
2018-11-29T10:59:28.723Z,22.27
2018-11-29T11:02:02.459Z,22.50
2018-11-29T11:04:30.889Z,23.17
2018-11-29T11:06:59.325Z,22.90
2018-11-29T11:09:27.751Z,24.40
2018-11-29T11:11:56.182Z,25.00
2018-11-29T11:14:24.647Z,22.57
2018-11-29T11:16:53.094Z,21.37
2018-11-29T11:19:21.521Z,22.00
2018-11-29T11:21:50.020Z,21.33
2018-11-29T11:24:18.438Z,21.53
2018-11-29T11:26:46.918Z,19.23
2018-11-29T11:29:15.354Z,20.90
2018-11-29T11:31:43.819Z,18.63
2018-11-29T11:34:12.236Z,21.80
2018-11-29T11:36:40.654Z,20.53
2018-11-29T11:39:09.113Z,17.23
2018-11-29T11:41:37.543Z,20.47
2018-11-29T11:44:05.999Z,21.17
2018-11-29T11:46:34.464Z,24.27
2018-11-29T11:49:02.983Z,20.30
2018-11-29T11:51:31.374Z,20.20
2018-11-29T11:53:59.806Z,19.67
2018-11-29T11:56:28.258Z,19.97
2018-11-29T11:58:56.699Z,22.33
2018-11-29T12:01:25.164Z,26.07
2018-11-29T12:03:53.610Z,18.57
2018-11-29T12:06:22.075Z,17.20
2018-11-29T12:08:50.510Z,22.70
2018-11-29T12:11:18.955Z,21.17
2018-11-29T12:13:47.394Z,16.07
2018-11-29T12:16:15.978Z,19.13
2018-11-29T12:18:44.427Z,21.40
2018-11-29T12:21:17.967Z,20.97
2018-11-29T12:23:46.410Z,15.57
2018-11-29T12:26:14.842Z,21.17
2018-11-29T12:28:43.302Z,17.90
2018-11-29T12:31:11.815Z,18.97
2018-11-29T12:33:40.260Z,17.87
2018-11-29T12:36:08.689Z,17.70
2018-11-29T12:38:37.130Z,19.70
2018-11-29T12:41:05.830Z,22.43
2018-11-29T12:43:34.273Z,18.63
2018-11-29T12:46:02.738Z,16.30
2018-11-29T12:48:32.533Z,17.10
2018-11-29T12:51:06.015Z,17.23
2018-11-29T12:53:34.666Z,20.43
2018-11-29T12:56:03.093Z,18.57
2018-11-29T12:58:31.530Z,19.67
2018-11-29T13:00:59.995Z,14.83
2018-11-29T13:03:28.494Z,17.10
2018-11-29T13:05:56.945Z,18.73
2018-11-29T13:08:25.718Z,15.33
2018-11-29T13:10:54.242Z,17.37
2018-11-29T13:13:22.671Z,15.23
2018-11-29T13:15:51.115Z,20.67
2018-11-29T13:18:19.538Z,20.57
2018-11-29T13:20:47.969Z,17.47
2018-11-29T13:23:16.393Z,22.70
2018-11-29T13:25:44.842Z,19.70
2018-11-29T13:28:13.263Z,20.40
2018-11-29T13:30:50.004Z,15.23
2018-11-29T13:33:18.425Z,14.80
2018-11-29T13:35:46.874Z,18.67
2018-11-29T13:38:16.392Z,18.33
2018-11-29T13:40:46.161Z,16.03
2018-11-29T13:43:14.634Z,18.07
2018-11-29T13:45:43.118Z,20.13
2018-11-29T13:48:12.486Z,16.77
2018-11-29T13:50:41.037Z,15.40
2018-11-29T13:53:09.457Z,17.03
2018-11-29T13:55:38.077Z,18.67
2018-11-29T13:58:06.675Z,18.23
2018-11-29T14:00:35.171Z,18.37
2018-11-29T14:03:09.763Z,17.63
2018-11-29T14:05:38.284Z,16.20
2018-11-29T14:08:07.830Z,15.37
2018-11-29T14:10:36.372Z,19.60
2018-11-29T14:13:06.018Z,18.03
2018-11-29T14:15:34.475Z,13.93
2018-11-29T14:18:02.970Z,18.33
2018-11-29T14:20:35.394Z,14.10
2018-11-29T14:22:59.907Z,20.37
2018-11-29T14:25:28.373Z,14.47
2018-11-29T14:27:57.737Z,16.90
2018-11-29T14:30:28.949Z,21.60
2018-11-29T14:32:58.454Z,17.33
2018-11-29T14:35:26.886Z,17.33
2018-11-29T14:37:55.360Z,15.83
2018-11-29T14:40:24.933Z,13.87
2018-11-29T14:42:53.385Z,16.50
2018-11-29T14:45:22.955Z,23.23
2018-11-29T14:47:51.450Z,16.60
2018-11-29T14:50:25.454Z,17.27
2018-11-29T14:52:53.899Z,19.93
2018-11-29T14:55:22.357Z,18.07
2018-11-29T14:57:50.810Z,16.50
2018-11-29T15:00:19.254Z,18.60
2018-11-29T15:02:47.707Z,21.97
2018-11-29T15:05:19.992Z,16.17
2018-11-29T15:07:48.438Z,19.37
2018-11-29T15:10:16.926Z,19.70
2018-11-29T15:12:45.374Z,17.43
2018-11-29T15:15:14.058Z,16.50
2018-11-29T15:17:43.358Z,18.30
2018-11-29T15:20:20.101Z,16.03
2018-11-29T15:22:48.578Z,13.27
2018-11-29T15:25:17.021Z,16.77
2018-11-29T15:27:45.489Z,18.47
2018-11-29T15:30:15.397Z,18.60
2018-11-29T15:32:43.903Z,16.90
2018-11-29T15:35:12.370Z,22.43
2018-11-29T15:37:40.890Z,17.13
2018-11-29T15:40:14.612Z,18.43
2018-11-29T15:42:43.075Z,17.43
2018-11-29T15:45:16.782Z,23.33
2018-11-29T15:47:45.219Z,19.00
2018-11-29T15:50:14.635Z,17.43
2018-11-29T15:52:43.158Z,15.97
2018-11-29T15:55:20.478Z,21.50
2018-11-29T15:57:49.919Z,16.37
2018-11-29T16:00:28.139Z,15.50
2018-11-29T16:02:57.902Z,17.60
2018-11-29T16:05:26.357Z,18.97
2018-11-29T16:07:54.786Z,17.47
2018-11-29T16:10:24.161Z,16.80
2018-11-29T16:12:52.640Z,14.87
2018-11-29T16:15:21.529Z,15.53
2018-11-29T16:17:50.833Z,17.80
2018-11-29T16:20:24.293Z,14.90
2018-11-29T16:22:52.765Z,16.83
2018-11-29T16:25:21.250Z,18.50
2018-11-29T16:27:49.785Z,19.47
2018-11-29T16:30:23.610Z,16.73
2018-11-29T16:32:52.094Z,19.17
2018-11-29T16:35:20.542Z,18.50
2018-11-29T16:37:48.966Z,17.87
2018-11-29T16:40:17.549Z,19.10
2018-11-29T16:42:45.939Z,16.90
2018-11-29T16:45:14.594Z,18.03
2018-11-29T16:47:43.352Z,19.20
2018-11-29T16:50:14.059Z,18.97
2018-11-29T16:52:42.503Z,21.77
2018-11-29T16:55:11.829Z,20.13
2018-11-29T16:57:42.917Z,20.20
2018-11-29T17:00:14.086Z,17.77
2018-11-29T17:02:42.517Z,18.63
2018-11-29T17:05:12.411Z,18.50
2018-11-29T17:07:40.866Z,22.20
2018-11-29T17:10:11.610Z,18.73
2018-11-29T17:12:40.326Z,17.17
2018-11-29T17:15:10.615Z,22.40
2018-11-29T17:17:39.049Z,18.53
2018-11-29T17:20:11.053Z,15.10
2018-11-29T17:22:39.507Z,90.10
2018-11-29T17:25:09.459Z,22.37
2018-11-29T17:27:37.922Z,17.63
2018-11-29T17:30:17.156Z,19.20
2018-11-29T17:32:45.682Z,19.63
2018-11-29T17:35:14.126Z,19.73
2018-11-29T17:37:42.606Z,29.70
2018-11-29T17:40:14.250Z,22.73
2018-11-29T17:42:42.890Z,19.57
2018-11-29T17:45:12.699Z,18.60
2018-11-29T17:47:42.298Z,18.13
2018-11-29T17:50:17.303Z,25.70
2018-11-29T17:52:45.769Z,22.37
2018-11-29T17:55:14.233Z,15.93
2018-11-29T17:57:42.717Z,17.57
2018-11-29T18:00:15.889Z,18.67
2018-11-29T18:02:44.342Z,21.20
2018-11-29T18:05:12.779Z,17.47
2018-11-29T18:07:41.277Z,17.07
2018-11-29T18:10:12.326Z,24.10
2018-11-29T18:12:40.758Z,16.50
2018-11-29T18:15:12.302Z,15.53
2018-11-29T18:17:40.803Z,16.13
2018-11-29T18:20:10.786Z,14.83
2018-11-29T18:22:39.274Z,16.93
2018-11-29T18:25:09.447Z,13.53
2018-11-29T18:27:37.934Z,17.33
2018-11-29T18:30:11.288Z,14.97
2018-11-29T18:32:40.247Z,14.80
2018-11-29T18:35:09.661Z,17.90
2018-11-29T18:37:38.137Z,13.83
2018-11-29T18:40:11.249Z,16.27
2018-11-29T18:42:39.681Z,12.57
2018-11-29T18:45:11.189Z,13.30
2018-11-29T18:47:40.134Z,16.90
2018-11-29T18:50:15.815Z,11.10
2018-11-29T18:52:44.346Z,12.33
2018-11-29T18:55:12.877Z,12.40
2018-11-29T18:57:41.298Z,11.90
2018-11-29T19:00:12.937Z,14.27
2018-11-29T19:02:41.377Z,14.17
2018-11-29T19:05:10.010Z,12.17
2018-11-29T19:07:38.440Z,15.17
2018-11-29T19:10:09.926Z,12.60
2018-11-29T19:12:38.930Z,12.53
2018-11-29T19:15:09.743Z,15.00
2018-11-29T19:17:38.399Z,15.07
2018-11-29T19:20:09.058Z,15.70
2018-11-29T19:22:37.474Z,16.23
2018-11-29T19:25:09.019Z,13.23
2018-11-29T19:27:37.455Z,12.50
2018-11-29T19:30:10.126Z,13.80
2018-11-29T19:32:38.543Z,13.70
2018-11-29T19:35:07.851Z,13.40
2018-11-29T19:37:36.271Z,16.13
2018-11-29T19:40:07.899Z,13.30
2018-11-29T19:42:36.311Z,13.00
2018-11-29T19:45:05.366Z,13.93
2018-11-29T19:47:33.803Z,14.83
2018-11-29T19:50:02.268Z,12.43
2018-11-29T19:52:30.719Z,11.37
2018-11-29T19:54:59.187Z,14.07
2018-11-29T19:57:27.618Z,16.40
2018-11-29T19:59:56.062Z,13.97
2018-11-29T20:02:24.505Z,16.60
2018-11-29T20:04:52.922Z,14.00
2018-11-29T20:07:21.374Z,16.23
2018-11-29T20:09:49.793Z,10.70
2018-11-29T20:12:18.271Z,12.17
2018-11-29T20:14:46.702Z,12.20
2018-11-29T20:17:15.170Z,12.78
2018-11-29T20:19:43.587Z,16.23
2018-11-29T20:22:12.051Z,10.67
2018-11-29T20:24:40.480Z,9.18
2018-11-29T20:27:08.933Z,9.77
2018-11-29T20:29:37.366Z,28.37
2018-11-29T20:32:06.006Z,24.63
2018-11-29T20:34:34.417Z,16.77
2018-11-29T20:37:02.869Z,12.00
2018-11-29T20:39:31.293Z,15.83
2018-11-29T20:41:59.742Z,18.30
2018-11-29T20:44:28.174Z,10.80
2018-11-29T20:46:56.716Z,9.00
2018-11-29T20:49:25.130Z,7.97
2018-11-29T20:51:53.587Z,8.98
2018-11-29T20:54:22.070Z,10.80
2018-11-29T20:56:50.588Z,11.50
2018-11-29T20:59:19.014Z,19.48
2018-11-29T21:01:47.458Z,17.87
2018-11-29T21:04:15.893Z,24.65
2018-11-29T21:06:44.366Z,13.85
2018-11-29T21:09:13.592Z,15.78
2018-11-29T21:11:42.041Z,13.25
2018-11-29T21:14:10.450Z,8.30
2018-11-29T21:16:38.934Z,11.65
2018-11-29T21:19:07.364Z,9.43
2018-11-29T21:21:35.809Z,9.08
2018-11-29T21:24:04.431Z,8.73
2018-11-29T21:26:32.890Z,9.45
2018-11-29T21:29:01.322Z,10.25
2018-11-29T21:31:29.766Z,9.80
2018-11-29T21:33:58.174Z,8.03
2018-11-29T21:36:26.655Z,8.30
2018-11-29T21:38:55.094Z,9.18
2018-11-29T21:41:23.515Z,9.25
2018-11-29T21:43:52.018Z,8.85
2018-11-29T21:46:20.449Z,7.30
2018-11-29T21:48:48.999Z,12.90
2018-11-29T21:51:17.423Z,9.48
2018-11-29T21:53:45.998Z,11.90
2018-11-29T21:56:14.418Z,9.10
2018-11-29T21:58:42.870Z,8.55
2018-11-29T22:01:11.286Z,8.85
2018-11-29T22:03:39.743Z,7.95
2018-11-29T22:06:08.169Z,9.03
2018-11-29T22:08:36.664Z,7.00
2018-11-29T22:11:05.266Z,8.90
2018-11-29T22:13:33.758Z,8.98
2018-11-29T22:16:02.177Z,9.00
2018-11-29T22:18:30.692Z,10.68
2018-11-29T22:21:01.428Z,8.23
2018-11-29T22:23:30.358Z,15.55
2018-11-29T22:25:59.957Z,9.58
2018-11-29T22:28:28.837Z,8.20
2018-11-29T22:30:57.469Z,10.65
2018-11-29T22:33:25.887Z,8.78
2018-11-29T22:35:54.322Z,10.45
2018-11-29T22:38:22.814Z,7.05
2018-11-29T22:40:51.265Z,7.85
2018-11-29T22:43:19.683Z,11.20
2018-11-29T22:45:48.190Z,8.20
2018-11-29T22:48:16.605Z,10.60
2018-11-29T22:50:45.044Z,9.60
2018-11-29T22:53:13.477Z,10.13
2018-11-29T22:55:42.027Z,12.03
2018-11-29T22:58:10.462Z,11.33
2018-11-29T23:00:44.298Z,8.48
2018-11-29T23:03:13.126Z,8.13
2018-11-29T23:05:41.657Z,10.55
2018-11-29T23:08:10.126Z,9.98
2018-11-29T23:10:38.586Z,9.23
2018-11-29T23:13:07.414Z,7.75
2018-11-29T23:15:35.953Z,8.18
2018-11-29T23:18:04.430Z,9.10
2018-11-29T23:20:32.910Z,10.70
2018-11-29T23:23:01.394Z,8.35
2018-11-29T23:25:29.842Z,7.65
2018-11-29T23:27:58.298Z,6.53
2018-11-29T23:30:26.854Z,10.05
2018-11-29T23:32:55.306Z,6.05
2018-11-29T23:35:23.738Z,8.65
2018-11-29T23:37:52.202Z,10.35
2018-11-29T23:40:20.650Z,8.95
2018-11-29T23:42:49.115Z,11.90
2018-11-29T23:45:17.566Z,11.78
2018-11-29T23:47:46.019Z,7.25
2018-11-29T23:50:15.725Z,10.78
2018-11-29T23:52:44.297Z,7.35
2018-11-29T23:55:21.286Z,9.65
2018-11-29T23:57:49.758Z,8.73
